Time;durP1;ratioP1;P1;durP2;ratioP2;P2;SDS_P1;SDS_P2;PMS_P1;PMS_P2;Temp;Humidity;BMP_temperature;BMP_pressure;BME280_temperature;BME280_humidity;BME280_pressure;Samples;Min_cycle;Max_cycle;Signal;HPM_P1;HPM_P2
2021/01/11 00:02:25;;;;;;;0.17;0.17;;;2.60;99.90;;;;;;5029418;28;20047;-88
2021/01/11 00:04:51;;;;;;;0.00;0.00;;;2.60;99.90;;;;;;5045802;28;20037;-89
2021/01/11 00:07:17;;;;;;;0.32;0.32;;;2.60;99.90;;;;;;5012907;28;20037;-88
2021/01/11 00:09:43;;;;;;;0.00;0.00;;;2.60;99.90;;;;;;5012820;28;20071;-87
2021/01/11 00:12:09;;;;;;;0.05;0.05;;;2.60;99.90;;;;;;5028877;28;20041;-90
2021/01/11 00:14:35;;;;;;;0.00;0.00;;;2.60;99.90;;;;;;5045432;28;20041;-89
2021/01/11 00:17:00;;;;;;;1.33;1.25;;;2.60;99.90;;;;;;5045450;28;20080;-88
2021/01/11 00:19:26;;;;;;;0.00;0.00;;;2.60;99.90;;;;;;5029112;28;20054;-89
2021/01/11 00:21:52;;;;;;;0.00;0.00;;;2.60;99.90;;;;;;5012530;28;20296;-88
2021/01/11 00:24:18;;;;;;;1.00;1.00;;;2.60;99.90;;;;;;5012442;28;20095;-89
2021/01/11 00:26:53;;;;;;;0.00;0.00;;;2.60;99.90;;;;;;5028809;28;20063;-88
2021/01/11 00:29:20;;;;;;;0.00;0.00;;;2.60;99.90;;;;;;5028959;28;20045;-89
2021/01/11 00:31:46;;;;;;;0.30;0.30;;;2.60;99.90;;;;;;5028338;28;20064;-88
2021/01/11 00:34:11;;;;;;;1.27;1.27;;;2.60;99.90;;;;;;5012358;28;20045;-88
2021/01/11 00:36:38;;;;;;;0.00;0.00;;;2.60;99.90;;;;;;5028703;28;20033;-88
2021/01/11 00:39:04;;;;;;;0.10;0.10;;;2.60;99.90;;;;;;5028682;28;20046;-88
2021/01/11 00:41:30;;;;;;;0.10;0.10;;;2.60;99.90;;;;;;5028608;28;20037;-89
2021/01/11 00:43:56;;;;;;;0.00;0.00;;;2.60;99.90;;;;;;5028625;28;20127;-88
2021/01/11 00:50:16;;;;;;;2.22;2.05;;;2.60;99.90;;;;;;5025806;28;20084;-89
2021/01/11 00:52:44;;;;;;;0.90;0.90;;;2.60;99.90;;;;;;4993102;28;20038;-87
2021/01/11 00:55:17;;;;;;;0.00;0.00;;;2.60;99.90;;;;;;5008863;28;20065;-88
2021/01/11 00:57:52;;;;;;;0.43;0.43;;;2.60;99.90;;;;;;4993831;28;20053;-89
2021/01/11 01:00:21;;;;;;;0.47;0.47;;;2.60;99.90;;;;;;4993178;28;20053;-91
2021/01/11 01:02:53;;;;;;;0.00;0.00;;;2.60;99.90;;;;;;5008775;28;20037;-93
2021/01/11 01:05:19;;;;;;;5.78;3.50;;;2.60;99.90;;;;;;5008863;28;20042;-88
2021/01/11 01:07:46;;;;;;;7.43;2.83;;;2.60;99.90;;;;;;4992479;28;20041;-88
2021/01/11 01:10:12;;;;;;;0.00;0.00;;;2.60;99.90;;;;;;4992824;28;20038;-90
2021/01/11 01:12:37;;;;;;;0.30;0.30;;;2.60;99.90;;;;;;4992606;28;20038;-88
2021/01/11 01:15:05;;;;;;;0.75;0.73;;;2.60;99.90;;;;;;5008740;28;20065;-88
2021/01/11 01:17:31;;;;;;;0.00;0.00;;;2.60;99.90;;;;;;4991986;28;20057;-88
2021/01/11 01:19:56;;;;;;;0.00;0.00;;;2.60;99.90;;;;;;5008613;28;20048;-88
2021/01/11 01:22:22;;;;;;;0.00;0.00;;;2.60;99.90;;;;;;5008702;28;20057;-88
2021/01/11 01:24:47;;;;;;;0.00;0.00;;;2.60;99.90;;;;;;5008669;28;20038;-88
2021/01/11 01:27:13;;;;;;;0.82;0.75;;;2.60;99.90;;;;;;5008857;28;20038;-88
2021/01/11 01:29:39;;;;;;;0.00;0.00;;;2.60;99.90;;;;;;5008677;28;20069;-90
2021/01/11 01:32:05;;;;;;;0.03;0.03;;;2.60;99.90;;;;;;4992212;28;20048;-87
2021/01/11 01:34:30;;;;;;;0.00;0.00;;;2.60;99.90;;;;;;4992268;28;20034;-88
2021/01/11 01:36:56;;;;;;;0.80;0.80;;;2.60;99.90;;;;;;5008524;28;20049;-88
2021/01/11 01:39:22;;;;;;;0.00;0.00;;;2.60;99.90;;;;;;5008745;28;20136;-88
2021/01/11 01:41:48;;;;;;;0.00;0.00;;;2.60;99.90;;;;;;5008477;28;20069;-88
2021/01/11 01:44:13;;;;;;;0.00;0.00;;;2.60;99.90;;;;;;5011510;28;20041;-88
2021/01/11 01:46:39;;;;;;;0.75;0.75;;;2.50;99.90;;;;;;5011901;28;20053;-88
2021/01/11 01:49:06;;;;;;;3.70;0.90;;;2.50;99.90;;;;;;5003963;28;20499;-88
2021/01/11 01:51:33;;;;;;;7.15;1.98;;;2.50;99.90;;;;;;4989205;28;20077;-87
2021/01/11 01:54:00;;;;;;;0.03;0.03;;;2.50;99.90;;;;;;4989223;28;20042;-88
2021/01/11 01:56:26;;;;;;;2.08;0.75;;;2.50;99.90;;;;;;5005523;28;20074;-89
2021/01/11 01:58:53;;;;;;;0.80;0.70;;;2.50;99.90;;;;;;4989171;28;20050;-89
2021/01/11 02:01:19;;;;;;;0.30;0.30;;;2.50;99.90;;;;;;4989233;28;20038;-89
2021/01/11 02:03:45;;;;;;;0.00;0.00;;;2.50;99.90;;;;;;4972534;28;20103;-88
2021/01/11 02:06:10;;;;;;;0.20;0.20;;;2.50;99.90;;;;;;4973131;28;20398;-87
2021/01/11 02:08:52;;;;;;;0.38;0.38;;;2.40;99.90;;;;;;4972994;28;20039;-89
2021/01/11 02:11:30;;;;;;;0.45;0.45;;;2.40;99.90;;;;;;4988978;28;20035;-89
2021/01/11 02:14:30;;;;;;;1.20;1.20;;;2.50;99.90;;;;;;4988903;28;20075;-88
2021/01/11 02:17:03;;;;;;;0.00;0.00;;;2.40;99.90;;;;;;4972914;28;20114;-88
2021/01/11 02:20:04;;;;;;;0.45;0.45;;;2.40;99.90;;;;;;4972549;28;20047;-89
2021/01/11 02:22:51;;;;;;;0.85;0.65;;;2.40;99.90;;;;;;4977917;28;20063;-88
2021/01/11 02:25:25;;;;;;;0.20;0.20;;;2.40;99.90;;;;;;4988622;28;20034;-89
2021/01/11 02:27:57;;;;;;;2.05;0.80;;;2.40;99.90;;;;;;4972494;28;20078;-89
2021/01/11 02:30:32;;;;;;;2.72;1.17;;;2.40;99.90;;;;;;4988466;28;20102;-88
2021/01/11 02:33:06;;;;;;;0.10;0.10;;;2.40;99.90;;;;;;4988496;28;20050;-89
2021/01/11 02:35:58;;;;;;;0.10;0.10;;;2.40;99.90;;;;;;4988234;28;20049;-88
2021/01/11 02:38:25;;;;;;;0.55;0.43;;;2.40;99.90;;;;;;4988422;28;20046;-88
2021/01/11 02:40:50;;;;;;;0.00;0.00;;;2.40;99.90;;;;;;4972353;28;20038;-88
2021/01/11 02:43:17;;;;;;;1.52;1.40;;;2.30;99.90;;;;;;4971976;28;20042;-88
2021/01/11 02:46:03;;;;;;;3.40;3.10;;;2.20;99.90;;;;;;4988146;28;20043;-90
2021/01/11 02:48:47;;;;;;;0.00;0.00;;;2.20;99.90;;;;;;4970942;28;20076;-88
2021/01/11 02:51:25;;;;;;;0.00;0.00;;;2.10;99.90;;;;;;4968083;29;20050;-89
2021/01/11 02:54:18;;;;;;;7.43;1.77;;;2.10;99.90;;;;;;4967513;28;20050;-88
2021/01/11 02:57:18;;;;;;;0.00;0.00;;;2.10;99.90;;;;;;4951887;29;20045;-87
2021/01/11 02:59:58;;;;;;;0.75;0.75;;;2.10;99.90;;;;;;4967667;29;20057;-88
2021/01/11 03:02:27;;;;;;;0.15;0.15;;;2.10;99.90;;;;;;4952009;29;20098;-88
2021/01/11 03:04:53;;;;;;;1.15;1.15;;;2.10;99.90;;;;;;4951600;29;20043;-88
2021/01/11 03:07:19;;;;;;;0.03;0.03;;;2.00;99.90;;;;;;4951935;29;20214;-88
2021/01/11 03:09:46;;;;;;;2.22;1.70;;;2.00;99.90;;;;;;4951713;29;20467;-88
2021/01/11 03:12:12;;;;;;;2.95;1.48;;;2.00;99.90;;;;;;4951669;29;20043;-90
2021/01/11 03:14:38;;;;;;;0.75;0.65;;;2.00;99.90;;;;;;4951432;29;20050;-88
2021/01/11 03:17:05;;;;;;;0.20;0.20;;;1.90;99.90;;;;;;4951388;29;20110;-88
2021/01/11 03:19:31;;;;;;;0.00;0.00;;;2.00;99.90;;;;;;4951234;29;20048;-89
2021/01/11 03:21:56;;;;;;;2.10;1.10;;;1.90;99.90;;;;;;4967679;29;20070;-90
2021/01/11 03:24:23;;;;;;;14.23;8.38;;;1.90;99.90;;;;;;4951076;29;20553;-89
2021/01/11 03:26:49;;;;;;;0.00;0.00;;;1.90;99.90;;;;;;4968294;29;20047;-89
2021/01/11 03:29:16;;;;;;;0.70;0.65;;;1.90;99.90;;;;;;4968554;28;20039;-89
2021/01/11 03:31:42;;;;;;;0.50;0.50;;;1.90;99.90;;;;;;4968393;29;20400;-90
2021/01/11 03:34:09;;;;;;;0.00;0.00;;;1.90;99.90;;;;;;4968123;29;20047;-87
2021/01/11 03:36:36;;;;;;;2.55;2.22;;;1.80;99.90;;;;;;4952034;29;20055;-88
2021/01/11 03:39:05;;;;;;;5.50;4.43;;;1.80;99.90;;;;;;4952138;29;20110;-90
2021/01/11 03:41:38;;;;;;;0.55;0.55;;;1.70;99.90;;;;;;4968045;29;20504;-88
2021/01/11 03:44:05;;;;;;;0.25;0.05;;;1.70;99.90;;;;;;4967896;29;20099;-90
2021/01/11 03:46:30;;;;;;;0.00;0.00;;;1.80;99.90;;;;;;4970649;28;20075;-87
2021/01/11 03:48:57;;;;;;;1.88;1.80;;;1.80;99.90;;;;;;4986939;28;20055;-89
2021/01/11 03:51:23;;;;;;;2.47;1.55;;;1.80;99.90;;;;;;4971064;28;20041;-88
2021/01/11 03:53:49;;;;;;;0.00;0.00;;;1.80;99.90;;;;;;4986722;28;20062;-89
2021/01/11 03:56:15;;;;;;;2.20;0.45;;;1.70;99.90;;;;;;4988161;28;20043;-89
2021/01/11 03:58:41;;;;;;;2.17;2.00;;;1.70;99.90;;;;;;4988113;28;20122;-87
2021/01/11 04:01:07;;;;;;;0.85;0.77;;;1.70;99.90;;;;;;4972335;28;20056;-88
2021/01/11 04:03:33;;;;;;;0.13;0.13;;;1.70;99.90;;;;;;4987710;28;20043;-88
2021/01/11 04:05:59;;;;;;;0.00;0.00;;;1.70;99.90;;;;;;4986086;28;20115;-88
2021/01/11 04:08:25;;;;;;;1.33;1.25;;;1.70;99.90;;;;;;4986643;28;20047;-87
2021/01/11 04:10:51;;;;;;;12.70;2.00;;;1.60;99.90;;;;;;4986736;28;20122;-88
2021/01/11 04:13:18;;;;;;;1.75;1.00;;;1.60;99.90;;;;;;4970752;28;20395;-88
2021/01/11 04:15:43;;;;;;;5.32;2.28;;;1.60;99.90;;;;;;4986567;28;20035;-88
2021/01/11 04:18:09;;;;;;;1.02;0.80;;;1.60;99.90;;;;;;4986600;28;20079;-88
2021/01/11 04:20:35;;;;;;;21.63;2.55;;;1.60;99.90;;;;;;4986470;28;20046;-88
2021/01/11 04:23:03;;;;;;;0.55;0.55;;;1.60;99.90;;;;;;4986501;28;20038;-88
2021/01/11 04:25:29;;;;;;;3.33;1.33;;;1.60;99.90;;;;;;4986271;28;20035;-88
2021/01/11 04:27:59;;;;;;;0.00;0.00;;;1.60;99.90;;;;;;4986465;28;20109;-89
2021/01/11 04:30:26;;;;;;;0.00;0.00;;;1.60;99.90;;;;;;4986394;28;20106;-88
2021/01/11 04:32:53;;;;;;;1.60;1.13;;;1.60;99.90;;;;;;4986479;28;20049;-87
2021/01/11 04:35:21;;;;;;;0.00;0.00;;;1.60;99.90;;;;;;4986209;28;20075;-89
2021/01/11 04:37:47;;;;;;;1.10;0.75;;;1.60;99.90;;;;;;4986226;28;20047;-85
2021/01/11 04:40:14;;;;;;;2.63;0.75;;;1.50;99.90;;;;;;5002414;28;20093;-88
2021/01/11 04:42:54;;;;;;;0.35;0.03;;;1.60;99.90;;;;;;4986347;28;20041;-87
2021/01/11 04:45:20;;;;;;;;;;;1.50;99.90;;;;;;4986526;28;20108;-87
2021/01/11 04:47:55;;;;;;;0.00;0.00;;;1.50;99.90;;;;;;5010124;23;20012;-86
2021/01/11 04:50:25;;;;;;;0.00;0.00;;;1.50;99.90;;;;;;5043721;28;20045;-87
2021/01/11 04:52:52;;;;;;;0.10;0.03;;;1.50;99.90;;;;;;5048819;28;20109;-87
2021/01/11 04:55:19;;;;;;;0.10;0.00;;;1.60;99.90;;;;;;5048595;28;20459;-86
2021/01/11 04:57:56;;;;;;;4.97;1.80;;;1.50;99.90;;;;;;5032088;28;20064;-86
2021/01/11 05:00:29;;;;;;;2.28;1.90;;;1.50;99.90;;;;;;5048692;28;20051;-88
2021/01/11 05:03:02;;;;;;;0.00;0.00;;;1.50;99.90;;;;;;5048857;28;20060;-87
2021/01/11 05:05:29;;;;;;;0.00;0.00;;;1.60;99.90;;;;;;5032107;28;20041;-87
2021/01/11 05:07:56;;;;;;;1.23;1.13;;;1.60;99.90;;;;;;5048531;28;20045;-86
2021/01/11 05:10:28;;;;;;;1.48;1.40;;;1.60;99.90;;;;;;5048428;28;20044;-87
2021/01/11 05:12:59;;;;;;;0.00;0.00;;;1.60;99.90;;;;;;5066486;28;20060;-87
2021/01/11 05:15:28;;;;;;;2.30;0.70;;;1.60;99.90;;;;;;5048568;28;20056;-89
2021/01/11 05:17:54;;;;;;;1.10;0.80;;;1.60;99.90;;;;;;5049243;28;20113;-87
2021/01/11 05:20:23;;;;;;;1.65;0.65;;;1.60;99.90;;;;;;5036130;28;20039;-89
2021/01/11 05:22:49;;;;;;;11.20;1.45;;;1.60;99.90;;;;;;5052476;28;20075;-85
2021/01/11 05:25:17;;;;;;;0.00;0.00;;;1.70;99.90;;;;;;5052453;28;20044;-88
2021/01/11 05:27:47;;;;;;;0.25;0.25;;;1.70;99.90;;;;;;5052694;28;20040;-88
2021/01/11 05:30:30;;;;;;;0.00;0.00;;;1.70;99.90;;;;;;5052325;28;20071;-87
2021/01/11 05:32:56;;;;;;;0.00;0.00;;;1.70;99.90;;;;;;5052302;28;20033;-85
2021/01/11 05:35:23;;;;;;;0.08;0.00;;;1.70;99.90;;;;;;5035332;28;20036;-87
2021/01/11 05:37:51;;;;;;;1.60;1.25;;;1.70;99.90;;;;;;5052173;28;20071;-87
2021/01/11 05:40:20;;;;;;;0.15;0.15;;;1.70;99.90;;;;;;5021435;28;20048;-89
2021/01/11 05:42:56;;;;;;;1.45;1.25;;;1.80;99.90;;;;;;5015949;28;20068;-88
2021/01/11 05:45:28;;;;;;;0.05;0.05;;;1.80;99.90;;;;;;5032296;28;20048;-88
2021/01/11 05:48:14;;;;;;;0.00;0.00;;;1.80;99.90;;;;;;5028460;28;20046;-88
2021/01/11 05:50:50;;;;;;;0.00;0.00;;;1.80;99.90;;;;;;5045391;28;20047;-87
2021/01/11 05:53:20;;;;;;;0.00;0.00;;;1.80;99.90;;;;;;5048212;28;20038;-90
2021/01/11 05:55:47;;;;;;;;;;;1.80;99.90;;;;;;5048712;28;20049;-87
2021/01/11 05:58:13;;;;;;;1.00;1.00;;;1.80;99.90;;;;;;5015700;28;19925;-87
2021/01/11 06:00:40;;;;;;;4.53;1.20;;;1.80;99.90;;;;;;5025105;28;20031;-88
2021/01/11 06:03:07;;;;;;;0.00;0.00;;;1.90;99.90;;;;;;5008413;28;20050;-88
2021/01/11 06:05:33;;;;;;;0.00;0.00;;;1.90;99.90;;;;;;5024862;28;20042;-90
2021/01/11 06:08:00;;;;;;;1.17;0.52;;;1.90;99.90;;;;;;5024880;28;20045;-88
2021/01/11 06:10:26;;;;;;;0.45;0.45;;;1.90;99.90;;;;;;5024822;28;20042;-90
2021/01/11 06:12:53;;;;;;;0.20;0.20;;;1.90;99.90;;;;;;5024936;28;20039;-86
2021/01/11 06:15:28;;;;;;;0.45;0.45;;;1.90;99.90;;;;;;5025010;28;20077;-88
2021/01/11 06:17:56;;;;;;;3.90;3.72;;;1.90;99.90;;;;;;5024668;28;20082;-87
2021/01/11 06:20:30;;;;;;;1.80;1.75;;;1.90;99.90;;;;;;5008172;28;20034;-87
2021/01/11 06:22:59;;;;;;;0.20;0.20;;;2.00;99.90;;;;;;5024798;28;20046;-88
2021/01/11 06:25:24;;;;;;;2.40;2.20;;;2.00;99.90;;;;;;5024540;28;20043;-89
2021/01/11 06:27:58;;;;;;;0.00;0.00;;;2.00;99.90;;;;;;5024422;28;20062;-87
2021/01/11 06:30:34;;;;;;;0.17;0.17;;;2.00;99.90;;;;;;5023666;28;20034;-88
2021/01/11 06:33:06;;;;;;;1.65;0.73;;;2.00;99.90;;;;;;5024324;28;20034;-88
2021/01/11 06:35:44;;;;;;;1.77;1.65;;;2.00;99.90;;;;;;5007855;28;20038;-90
2021/01/11 06:38:25;;;;;;;0.00;0.00;;;2.00;99.90;;;;;;5024523;28;20475;-88
2021/01/11 06:41:03;;;;;;;1.90;1.85;;;2.10;99.90;;;;;;5024144;28;20057;-87
2021/01/11 06:43:48;;;;;;;1.83;1.08;;;2.10;99.90;;;;;;5024176;28;20123;-86
2021/01/11 06:46:29;;;;;;;2.95;2.75;;;2.10;99.90;;;;;;5008110;28;20062;-88
2021/01/11 06:48:57;;;;;;;0.73;0.73;;;2.10;99.90;;;;;;4996541;28;20065;-86
2021/01/11 06:51:42;;;;;;;0.08;0.08;;;2.10;99.90;;;;;;4995125;28;20446;-87
2021/01/11 06:54:13;;;;;;;0.45;0.45;;;2.10;99.90;;;;;;4994838;28;20065;-87
2021/01/11 06:56:40;;;;;;;9.23;6.40;;;2.10;99.90;;;;;;5010826;28;20040;-89
2021/01/11 06:59:13;;;;;;;5.07;1.35;;;2.10;99.90;;;;;;4994438;28;20100;-85
2021/01/11 07:01:40;;;;;;;0.75;0.00;;;2.10;99.90;;;;;;4994534;28;20034;-87
2021/01/11 07:04:07;;;;;;;2.40;1.38;;;2.10;99.90;;;;;;5010901;28;20514;-89
2021/01/11 07:06:33;;;;;;;0.05;0.05;;;2.10;99.90;;;;;;4994782;28;20034;-87
2021/01/11 07:09:19;;;;;;;0.90;0.90;;;2.10;99.90;;;;;;4994548;28;20041;-87
2021/01/11 07:11:50;;;;;;;0.95;0.77;;;2.10;99.90;;;;;;4994343;28;20038;-86
2021/01/11 07:14:22;;;;;;;1.00;1.00;;;2.10;99.90;;;;;;4994202;28;20101;-86
2021/01/11 07:16:55;;;;;;;3.53;3.20;;;2.10;99.90;;;;;;4994434;28;20076;-88
2021/01/11 07:19:21;;;;;;;2.97;1.88;;;2.10;99.90;;;;;;4994454;28;20072;-87
2021/01/11 07:21:49;;;;;;;0.00;0.00;;;2.10;99.90;;;;;;5010499;28;20041;-86
2021/01/11 07:24:15;;;;;;;3.30;1.25;;;2.00;99.90;;;;;;4994043;28;20041;-86
2021/01/11 07:26:40;;;;;;;0.98;0.98;;;2.10;99.90;;;;;;4994352;28;20376;-86
2021/01/11 07:29:08;;;;;;;2.92;1.35;;;2.10;99.90;;;;;;4994313;28;20382;-87
2021/01/11 07:31:35;;;;;;;0.65;0.65;;;2.10;99.90;;;;;;5010856;28;20057;-86
2021/01/11 07:34:06;;;;;;;0.22;0.08;;;2.10;99.90;;;;;;5011579;28;20046;-87
2021/01/11 07:36:46;;;;;;;0.00;0.00;;;2.10;99.90;;;;;;4995300;28;20065;-87
2021/01/11 07:39:15;;;;;;;0.32;0.32;;;2.10;99.90;;;;;;4994779;28;20066;-87
2021/01/11 07:41:49;;;;;;;2.55;1.55;;;2.10;99.90;;;;;;5009357;28;20148;-88
2021/01/11 07:44:23;;;;;;;1.15;1.15;;;2.10;99.90;;;;;;4993867;28;20045;-85
2021/01/11 07:47:03;;;;;;;1.23;1.23;;;2.10;99.90;;;;;;4994513;28;20044;-86
2021/01/11 07:49:35;;;;;;;0.00;0.00;;;2.10;99.90;;;;;;5013521;28;20108;-87
2021/01/11 07:52:17;;;;;;;0.98;0.98;;;2.10;99.90;;;;;;5029591;28;20064;-87
2021/01/11 07:54:46;;;;;;;0.73;0.73;;;2.10;99.90;;;;;;5029482;28;20038;-84
2021/01/11 07:57:15;;;;;;;0.47;0.30;;;2.10;99.90;;;;;;5029443;28;20443;-84
2021/01/11 07:59:42;;;;;;;0.43;0.43;;;2.10;99.90;;;;;;5013338;28;20052;-87
2021/01/11 08:02:10;;;;;;;1.35;1.25;;;2.10;99.90;;;;;;5013404;28;20044;-89
2021/01/11 08:04:37;;;;;;;3.92;3.75;;;2.10;99.90;;;;;;5013200;28;20076;-89
2021/01/11 08:07:12;;;;;;;0.00;0.00;;;2.10;99.90;;;;;;5013113;28;20088;-88
2021/01/11 08:09:39;;;;;;;1.95;1.50;;;2.20;99.90;;;;;;5029476;28;20478;-88
2021/01/11 08:12:07;;;;;;;2.53;1.70;;;2.10;99.90;;;;;;5029753;28;20048;-87
2021/01/11 08:14:32;;;;;;;1.17;1.10;;;2.20;99.90;;;;;;5013002;28;20030;-91
2021/01/11 08:16:59;;;;;;;1.00;1.00;;;2.20;99.90;;;;;;5029627;28;20386;-87
2021/01/11 08:19:25;;;;;;;0.28;0.28;;;2.20;99.90;;;;;;5013166;28;20053;-87
2021/01/11 08:21:58;;;;;;;15.18;7.13;;;2.20;99.90;;;;;;5029505;28;20083;-88
2021/01/11 08:24:24;;;;;;;4.90;1.75;;;2.20;99.90;;;;;;5012760;28;20401;-89
2021/01/11 08:27:11;;;;;;;1.20;1.13;;;2.20;99.90;;;;;;5013538;28;20041;-91
2021/01/11 08:29:42;;;;;;;0.00;0.00;;;2.20;99.90;;;;;;5012959;28;20037;-88
2021/01/11 08:32:12;;;;;;;1.75;1.40;;;2.20;99.90;;;;;;5012377;28;20469;-88
2021/01/11 08:34:40;;;;;;;5.85;5.38;;;2.20;99.90;;;;;;5012791;28;20041;-87
2021/01/11 08:37:28;;;;;;;0.43;0.40;;;2.20;99.90;;;;;;5012902;28;20113;-85
2021/01/11 08:39:58;;;;;;;0.28;0.28;;;2.20;99.90;;;;;;5012819;28;20401;-88
2021/01/11 08:42:28;;;;;;;2.08;1.80;;;2.20;99.90;;;;;;5012848;28;20044;-87
2021/01/11 08:44:54;;;;;;;0.10;0.00;;;2.20;99.90;;;;;;5013095;28;20041;-87
2021/01/11 08:47:30;;;;;;;5.28;0.10;;;2.20;99.90;;;;;;5012175;28;20068;-86
2021/01/11 08:50:01;;;;;;;1.50;1.40;;;2.20;99.90;;;;;;5028193;28;20041;-88
2021/01/11 08:52:28;;;;;;;0.90;0.88;;;2.20;99.90;;;;;;5011649;28;20049;-87
2021/01/11 08:54:55;;;;;;;3.90;1.17;;;2.20;99.90;;;;;;5028025;28;20071;-86
2021/01/11 08:57:21;;;;;;;1.38;0.75;;;2.20;99.90;;;;;;5027991;28;20041;-88
2021/01/11 08:59:50;;;;;;;0.30;0.10;;;2.20;99.90;;;;;;5011622;28;20052;-89
2021/01/11 09:02:29;;;;;;;5.82;1.80;;;2.20;99.90;;;;;;5011776;28;20120;-88
2021/01/11 09:04:56;;;;;;;3.50;1.25;;;2.20;99.90;;;;;;5028471;28;20084;-87
2021/01/11 09:07:27;;;;;;;1.85;1.20;;;2.20;99.90;;;;;;5011905;28;20038;-87
2021/01/11 09:09:53;;;;;;;2.25;0.40;;;2.30;99.90;;;;;;5011533;28;20094;-86
2021/01/11 09:12:33;;;;;;;3.88;1.35;;;2.30;99.90;;;;;;5027850;28;20112;-87
2021/01/11 09:14:58;;;;;;;0.00;0.00;;;2.30;99.90;;;;;;5027501;28;20065;-86
2021/01/11 09:17:26;;;;;;;2.08;1.55;;;2.30;99.90;;;;;;5010960;28;20052;-86
2021/01/11 09:19:52;;;;;;;0.10;0.10;;;2.20;99.90;;;;;;5011633;28;20065;-86
2021/01/11 09:22:29;;;;;;;1.30;0.63;;;2.30;99.90;;;;;;5011498;28;20046;-85
2021/01/11 09:24:54;;;;;;;4.00;1.20;;;2.30;99.90;;;;;;5028884;28;20510;-87
2021/01/11 09:27:20;;;;;;;0.45;0.45;;;2.30;99.90;;;;;;5027343;28;20041;-88
2021/01/11 09:29:46;;;;;;;0.00;0.00;;;2.30;99.90;;;;;;5011413;28;20105;-86
2021/01/11 09:32:11;;;;;;;38.15;2.85;;;2.30;99.90;;;;;;5027762;28;20049;-87
2021/01/11 09:34:37;;;;;;;8.85;1.65;;;2.30;99.90;;;;;;5027482;28;20045;-88
2021/01/11 09:37:02;;;;;;;1.95;1.85;;;2.30;99.90;;;;;;5027544;28;20046;-88
2021/01/11 09:39:28;;;;;;;0.00;0.00;;;2.30;99.90;;;;;;5027370;28;20042;-88
2021/01/11 09:41:56;;;;;;;0.00;0.00;;;2.30;99.90;;;;;;5011026;28;20486;-88
2021/01/11 09:44:21;;;;;;;1.17;0.00;;;2.40;99.90;;;;;;5010435;28;20045;-87
2021/01/11 09:46:53;;;;;;;5.07;1.00;;;2.30;99.90;;;;;;5027226;28;20045;-87
2021/01/11 09:49:19;;;;;;;2.47;1.40;;;2.40;99.90;;;;;;5027475;28;20041;-86
2021/01/11 09:51:45;;;;;;;11.68;0.93;;;2.40;99.90;;;;;;5011586;28;20048;-87
2021/01/11 09:54:11;;;;;;;0.30;0.20;;;2.50;99.90;;;;;;5011355;28;20041;-89
2021/01/11 09:56:37;;;;;;;0.57;0.40;;;2.50;99.90;;;;;;5027793;28;20041;-87
2021/01/11 09:59:04;;;;;;;11.82;3.10;;;2.50;99.90;;;;;;5010818;28;20108;-87
2021/01/11 10:01:42;;;;;;;2.97;1.95;;;2.50;99.90;;;;;;5011408;28;20064;-88
2021/01/11 10:04:08;;;;;;;0.57;0.38;;;2.50;99.90;;;;;;5028311;28;20203;-88
2021/01/11 10:06:41;;;;;;;5.88;1.27;;;2.50;99.90;;;;;;5014636;28;20041;-86
2021/01/11 10:09:08;;;;;;;3.15;0.77;;;2.60;99.90;;;;;;5014926;28;20041;-87
2021/01/11 10:11:34;;;;;;;4.25;1.75;;;2.60;99.90;;;;;;5014525;28;20053;-87
2021/01/11 10:13:59;;;;;;;0.65;0.63;;;2.60;99.90;;;;;;5014619;28;20128;-88
2021/01/11 10:16:25;;;;;;;1.27;0.45;;;2.70;99.90;;;;;;5014555;28;20041;-84
2021/01/11 10:18:52;;;;;;;0.35;0.35;;;2.70;99.90;;;;;;5000640;28;20053;-91
2021/01/11 10:21:17;;;;;;;5.28;1.25;;;2.70;99.90;;;;;;5019973;28;20430;-88
2021/01/11 10:23:43;;;;;;;3.35;0.68;;;2.70;99.90;;;;;;5029903;28;20100;-86
2021/01/11 10:26:18;;;;;;;0.00;0.00;;;2.70;99.90;;;;;;5012152;28;20048;-87
2021/01/11 10:28:44;;;;;;;0.10;0.10;;;2.70;99.90;;;;;;5028934;28;20168;-89
2021/01/11 10:31:10;;;;;;;0.10;0.10;;;2.70;99.90;;;;;;5005020;28;20056;-89
2021/01/11 10:33:35;;;;;;;0.00;0.00;;;2.80;99.90;;;;;;5013218;28;20072;-89
2021/01/11 10:36:01;;;;;;;0.40;0.40;;;2.80;99.90;;;;;;5014456;28;20091;-89
2021/01/11 10:38:27;;;;;;;0.22;0.22;;;2.80;99.90;;;;;;5027108;28;20038;-88
2021/01/11 10:40:52;;;;;;;3.55;2.42;;;2.80;99.90;;;;;;5014124;28;20095;-87
2021/01/11 10:43:18;;;;;;;1.85;1.75;;;2.80;99.90;;;;;;5012145;28;20037;-89
2021/01/11 10:46:04;;;;;;;0.00;0.00;;;2.90;99.90;;;;;;5015007;28;20045;-95
2021/01/11 10:48:32;;;;;;;0.00;0.00;;;2.90;99.90;;;;;;4974988;28;20074;-89
2021/01/11 10:50:58;;;;;;;2.83;1.85;;;2.90;99.90;;;;;;4974832;28;20546;-90
2021/01/11 10:53:24;;;;;;;0.05;0.05;;;2.90;99.90;;;;;;4969660;28;20447;-88
2021/01/11 10:55:49;;;;;;;0.00;0.00;;;2.90;99.90;;;;;;4972646;28;20053;-92
2021/01/11 10:58:15;;;;;;;0.00;0.00;;;3.00;99.90;;;;;;4973202;28;20063;-89
2021/01/11 11:00:40;;;;;;;0.00;0.00;;;3.00;99.90;;;;;;4987678;28;20109;-88
2021/01/11 11:03:07;;;;;;;0.00;0.00;;;3.00;99.90;;;;;;4970364;28;20034;-89
2021/01/11 11:05:33;;;;;;;0.00;0.00;;;3.00;99.90;;;;;;4972079;28;20042;-87
2021/01/11 11:07:59;;;;;;;0.00;0.00;;;3.00;99.90;;;;;;4987552;28;20035;-88
2021/01/11 11:10:25;;;;;;;0.35;0.25;;;3.00;99.90;;;;;;4953509;28;20075;-86
2021/01/11 11:12:51;;;;;;;0.05;0.05;;;3.00;99.90;;;;;;4985866;28;20034;-87
2021/01/11 11:15:17;;;;;;;0.00;0.00;;;3.00;99.90;;;;;;4967995;28;20058;-88
2021/01/11 11:17:43;;;;;;;8.93;2.55;;;3.00;99.90;;;;;;4956005;28;20067;-87
2021/01/11 11:20:09;;;;;;;1.63;1.52;;;3.00;99.90;;;;;;4976990;28;20061;-88
2021/01/11 11:22:35;;;;;;;0.95;0.50;;;3.00;99.90;;;;;;4968658;28;20066;-88
2021/01/11 11:25:06;;;;;;;0.93;0.80;;;3.00;99.90;;;;;;4979805;28;20062;-89
2021/01/11 11:27:32;;;;;;;;;;;3.00;99.90;;;;;;5010965;28;20038;-86
2021/01/11 11:29:58;;;;;;;2.05;0.60;;;3.10;99.90;;;;;;5027669;28;20356;-87
2021/01/11 11:32:23;;;;;;;0.00;0.00;;;3.10;99.90;;;;;;5009826;28;20101;-88
2021/01/11 11:34:49;;;;;;;2.90;0.35;;;3.10;99.90;;;;;;5009684;28;20037;-88
2021/01/11 11:37:18;;;;;;;4.22;3.50;;;3.10;99.90;;;;;;5009599;28;20133;-89
2021/01/11 11:39:43;;;;;;;0.00;0.00;;;3.20;99.90;;;;;;5025737;28;20073;-86
2021/01/11 11:42:09;;;;;;;1.45;0.95;;;3.20;99.90;;;;;;5009428;28;20045;-88
2021/01/11 11:44:35;;;;;;;0.00;0.00;;;3.20;99.90;;;;;;5009304;28;20452;-89
2021/01/11 11:47:00;;;;;;;2.42;1.65;;;3.10;99.90;;;;;;5025804;28;20038;-85
2021/01/11 11:49:26;;;;;;;1.02;0.45;;;3.20;99.90;;;;;;5043423;28;20117;-88
2021/01/11 11:51:52;;;;;;;1.85;1.00;;;3.20;99.90;;;;;;5029069;28;20065;-88
2021/01/11 11:54:17;;;;;;;2.22;0.45;;;3.30;99.90;;;;;;5028911;28;20037;-86
2021/01/11 11:56:43;;;;;;;3.63;3.40;;;3.20;99.90;;;;;;5028853;28;20049;-88
2021/01/11 11:59:10;;;;;;;0.00;0.00;;;3.20;99.90;;;;;;5029010;28;20076;-87
2021/01/11 12:01:40;;;;;;;1.08;1.08;;;3.30;99.90;;;;;;5045374;28;20085;-87
2021/01/11 12:04:06;;;;;;;0.17;0.17;;;3.30;99.90;;;;;;5028570;28;20128;-87
2021/01/11 12:06:43;;;;;;;0.68;0.68;;;3.30;99.90;;;;;;5028828;28;20037;-87
2021/01/11 12:09:09;;;;;;;0.00;0.00;;;3.30;99.90;;;;;;5028782;28;20136;-88
2021/01/11 12:11:49;;;;;;;2.83;0.98;;;3.40;99.90;;;;;;5028984;28;20034;-85
2021/01/11 12:14:15;;;;;;;2.58;0.40;;;3.40;99.90;;;;;;5028614;28;20037;-88
2021/01/11 12:16:41;;;;;;;0.00;0.00;;;3.30;99.90;;;;;;5029493;28;20033;-87
2021/01/11 12:19:06;;;;;;;0.17;0.17;;;3.30;99.90;;;;;;5020337;28;20061;-86
2021/01/11 12:21:36;;;;;;;5.53;1.45;;;3.30;99.90;;;;;;5042842;28;20128;-86
2021/01/11 12:24:02;;;;;;;0.00;0.00;;;3.40;99.90;;;;;;5041209;28;20062;-86
2021/01/11 12:26:38;;;;;;;1.75;0.25;;;3.40;99.90;;;;;;5040973;28;20045;-86
2021/01/11 12:29:05;;;;;;;0.08;0.08;;;3.40;99.90;;;;;;5041688;28;20057;-87
2021/01/11 12:31:31;;;;;;;0.00;0.00;;;3.50;99.90;;;;;;5024991;28;20052;-89
2021/01/11 12:33:57;;;;;;;0.98;0.32;;;3.50;99.90;;;;;;5041602;28;20052;-84
2021/01/11 12:36:24;;;;;;;0.00;0.00;;;3.50;99.90;;;;;;5041285;28;20041;-87
2021/01/11 12:38:50;;;;;;;4.70;1.65;;;3.60;99.90;;;;;;5024479;28;20068;-87
2021/01/11 12:41:17;;;;;;;0.90;0.65;;;3.60;99.90;;;;;;5041391;28;20038;-87
2021/01/11 12:43:43;;;;;;;1.23;0.77;;;3.60;99.90;;;;;;5041103;28;20058;-87
2021/01/11 12:49:16;;;;;;;0.00;0.00;;;3.60;99.90;;;;;;5010455;28;20100;-87
2021/01/11 12:51:43;;;;;;;0.00;0.00;;;3.70;99.90;;;;;;5024991;28;20125;-87
2021/01/11 12:54:08;;;;;;;0.60;0.60;;;3.60;99.90;;;;;;5024866;28;20041;-87
2021/01/11 12:56:34;;;;;;;0.00;0.00;;;3.60;99.90;;;;;;5025146;28;20101;-84
2021/01/11 12:59:00;;;;;;;1.75;0.63;;;3.60;99.90;;;;;;5024872;28;20053;-87
2021/01/11 13:01:27;;;;;;;2.80;1.25;;;3.60;99.90;;;;;;5008552;28;20053;-85
2021/01/11 13:03:55;;;;;;;4.50;1.00;;;3.60;99.90;;;;;;5024933;28;20037;-89
2021/01/11 13:06:27;;;;;;;0.00;0.00;;;3.60;99.90;;;;;;5024981;28;20076;-89
2021/01/11 13:08:54;;;;;;;0.00;0.00;;;3.60;99.90;;;;;;5025051;28;20046;-88
2021/01/11 13:11:22;;;;;;;0.28;0.28;;;3.60;99.90;;;;;;5025467;28;20038;-84
2021/01/11 13:13:50;;;;;;;1.83;0.47;;;3.60;99.90;;;;;;5024874;28;20115;-85
2021/01/11 13:16:30;;;;;;;1.55;1.23;;;3.70;99.90;;;;;;5024631;28;20034;-86